Time;durP1;ratioP1;P1;durP2;ratioP2;P2;SDS_P1;SDS_P2;PMS_P1;PMS_P2;Temp;Humidity;BMP_temperature;BMP_pressure;BME280_temperature;BME280_humidity;BME280_pressure;Samples;Min_cycle;Max_cycle;Signal;HPM_P1;HPM_P2
2021/09/23 00:02:24;;;;;;;16.00;12.35;;;;;;;10.47;100.00;100707.56;1745616;80;21796;-85
2021/09/23 00:04:44;;;;;;;17.02;12.33;;;;;;;10.41;100.00;100712.28;1773713;80;21026;-85
2021/09/23 00:07:10;;;;;;;16.12;11.75;;;;;;;10.37;100.00;100712.61;1775755;80;21002;-85
2021/09/23 00:09:38;;;;;;;19.12;13.08;;;;;;;10.37;100.00;100713.46;1775697;80;21027;-85
2021/09/23 00:12:06;;;;;;;17.30;12.58;;;;;;;10.41;100.00;100716.19;1775739;80;21003;-85
2021/09/23 00:14:33;;;;;;;17.87;13.10;;;;;;;10.48;100.00;100716.58;1775846;80;21135;-85
2021/09/23 00:17:02;;;;;;;14.28;12.78;;;;;;;10.53;100.00;100696.72;1775812;80;21049;-85
2021/09/23 00:19:29;;;;;;;17.10;12.65;;;;;;;10.58;100.00;100701.11;1760587;80;20970;-85
2021/09/23 00:21:58;;;;;;;13.93;12.53;;;;;;;10.58;100.00;100699.31;1775930;80;20990;-84
2021/09/23 00:24:26;;;;;;;29.48;14.10;;;;;;;10.61;100.00;100706.09;1775894;80;21057;-84
2021/09/23 00:26:53;;;;;;;16.37;12.18;;;;;;;10.64;100.00;100707.64;1775777;80;21134;-84
2021/09/23 00:29:20;;;;;;;16.00;12.37;;;;;;;10.63;100.00;100710.70;1745487;80;21066;-86
2021/09/23 00:31:47;;;;;;;16.67;12.45;;;;;;;10.68;100.00;100706.45;1745734;80;21041;-84
2021/09/23 00:34:14;;;;;;;15.10;12.65;;;;;;;10.71;100.00;100709.66;1760662;80;21440;-85
2021/09/23 00:36:41;;;;;;;23.07;13.40;;;;;;;10.67;100.00;100705.64;1745721;80;21069;-85
2021/09/23 00:39:09;;;;;;;18.82;12.23;;;;;;;10.62;100.00;100709.52;1745404;80;21018;-85
2021/09/23 00:41:37;;;;;;;15.95;11.75;;;;;;;10.56;100.00;100710.34;1745911;80;21488;-85
2021/09/23 00:44:13;;;;;;;23.27;13.53;;;;;;;10.53;100.00;100710.55;1760317;80;21065;-85
2021/09/23 00:46:41;;;;;;;25.60;13.53;;;;;;;10.54;100.00;100710.06;1775997;80;21462;-84
2021/09/23 00:49:10;;;;;;;61.10;15.43;;;;;;;10.57;100.00;100707.25;1775680;80;20994;-85
2021/09/23 00:51:39;;;;;;;17.35;12.50;;;;;;;10.62;100.00;100710.33;1760749;80;21299;-84
2021/09/23 00:54:07;;;;;;;15.35;12.68;;;;;;;10.67;100.00;100710.84;1775707;80;21052;-84
2021/09/23 00:56:36;;;;;;;15.55;12.68;;;;;;;10.68;100.00;100707.75;1770084;80;21053;-85
2021/09/23 00:59:05;;;;;;;14.68;12.63;;;;;;;10.68;100.00;100703.85;1775820;80;21041;-86
2021/09/23 01:01:33;;;;;;;13.72;12.28;;;;;;;10.68;100.00;100708.60;1775747;80;21011;-86
2021/09/23 01:04:01;;;;;;;12.53;11.22;;;;;;;10.73;100.00;100707.78;1775831;80;21099;-87
2021/09/23 01:06:29;;;;;;;13.50;12.07;;;;;;;10.75;100.00;100704.23;1745565;80;20990;-86
2021/09/23 01:08:59;;;;;;;13.28;11.50;;;;;;;10.76;100.00;100711.92;1775853;80;20977;-85
2021/09/23 01:11:29;;;;;;;13.40;11.95;;;;;;;10.77;100.00;100712.28;1775956;80;21018;-85
2021/09/23 01:13:58;;;;;;;12.78;11.48;;;;;;;10.79;100.00;100712.16;1775615;80;21096;-84
2021/09/23 01:16:38;;;;;;;15.03;11.40;;;;;;;10.79;100.00;100709.55;1773781;80;21155;-84
2021/09/23 01:19:10;;;;;;;18.15;12.15;;;;;;;10.80;100.00;100706.02;1773708;80;21529;-84
2021/09/23 01:21:39;;;;;;;16.17;10.60;;;;;;;10.78;100.00;100703.53;1775916;80;20954;-85
2021/09/23 01:24:08;;;;;;;14.15;11.12;;;;;;;10.77;100.00;100706.27;1775910;80;20998;-85
2021/09/23 01:26:37;;;;;;;25.85;11.65;;;;;;;10.71;100.00;100698.42;1775721;80;21022;-85
2021/09/23 01:29:06;;;;;;;15.68;11.25;;;;;;;10.73;100.00;100699.97;1772729;79;21409;-85
2021/09/23 01:31:35;;;;;;;12.55;11.18;;;;;;;10.76;100.00;100695.48;1764504;79;21512;-85
2021/09/23 01:34:02;;;;;;;12.18;10.88;;;;;;;10.77;100.00;100697.14;1805981;79;21516;-84
2021/09/23 01:36:30;;;;;;;13.62;11.03;;;;;;;10.78;100.00;100695.72;1775581;80;21011;-85
2021/09/23 01:38:57;;;;;;;13.10;10.98;;;;;;;10.80;100.00;100692.98;1766440;78;20979;-85
2021/09/23 01:41:24;;;;;;;18.48;11.28;;;;;;;10.81;100.00;100698.11;1776219;79;21821;-86
2021/09/23 01:43:52;;;;;;;15.28;10.58;;;;;;;10.84;100.00;100691.83;1807563;78;20987;-85
2021/09/23 01:46:20;;;;;;;19.45;11.08;;;;;;;10.87;100.00;100692.88;1770951;80;21361;-85
2021/09/23 01:48:58;;;;;;;13.22;10.48;;;;;;;10.89;100.00;100688.39;1766884;80;21516;-86
2021/09/23 01:51:25;;;;;;;11.65;10.35;;;;;;;10.91;100.00;100690.87;1775770;80;21069;-85
2021/09/23 01:53:52;;;;;;;12.37;9.90;;;;;;;10.90;100.00;100690.06;1775664;80;21186;-85
2021/09/23 01:56:19;;;;;;;14.85;10.40;;;;;;;10.90;100.00;100690.06;1745328;80;20958;-85
2021/09/23 01:58:48;;;;;;;12.13;10.08;;;;;;;10.87;100.00;100690.28;1775636;80;20982;-86
2021/09/23 02:01:17;;;;;;;11.12;10.03;;;;;;;10.85;100.00;100685.19;1775752;80;21034;-85
2021/09/23 02:03:44;;;;;;;11.43;10.18;;;;;;;10.80;100.00;100689.93;1745462;80;21054;-84
2021/09/23 02:06:12;;;;;;;13.88;10.60;;;;;;;10.70;100.00;100687.16;1771428;80;21116;-84
2021/09/23 02:08:42;;;;;;;11.65;10.38;;;;;;;10.63;100.00;100679.45;1745909;80;20971;-84
2021/09/23 02:11:12;;;;;;;11.25;10.15;;;;;;;10.57;100.00;100684.66;1775632;80;21128;-85
2021/09/23 02:13:43;;;;;;;10.85;9.80;;;;;;;10.55;100.00;100687.84;1771595;80;21494;-84
2021/09/23 02:16:11;;;;;;;12.00;10.72;;;;;;;10.49;100.00;100686.16;1745728;80;21014;-84
2021/09/23 02:18:39;;;;;;;14.30;11.28;;;;;;;10.39;100.00;100687.31;1745198;80;21027;-84
2021/09/23 02:21:08;;;;;;;12.23;11.03;;;;;;;10.29;100.00;100685.83;1775528;80;21572;-84
2021/09/23 02:23:35;;;;;;;15.00;10.93;;;;;;;10.20;100.00;100689.09;1745272;80;21011;-84
2021/09/23 02:26:04;;;;;;;27.58;11.75;;;;;;;10.16;100.00;100693.69;1775565;80;21057;-84
2021/09/23 02:28:34;;;;;;;12.03;10.82;;;;;;;10.07;100.00;100689.96;1745305;80;21140;-84
2021/09/23 02:31:03;;;;;;;11.97;10.78;;;;;;;10.02;100.00;100688.63;1775607;80;21069;-84
2021/09/23 02:33:30;;;;;;;17.85;11.88;;;;;;;9.99;100.00;100689.68;1775676;80;21477;-83
2021/09/23 02:35:59;;;;;;;13.03;11.25;;;;;;;9.98;100.00;100686.72;1775740;80;21145;-84
2021/09/23 02:38:28;;;;;;;13.00;11.45;;;;;;;9.99;100.00;100688.86;1745359;80;21076;-83
2021/09/23 02:40:57;;;;;;;11.68;10.48;;;;;;;9.95;100.00;100694.75;1771307;80;21005;-83
2021/09/23 02:43:25;;;;;;;13.38;10.82;;;;;;;9.90;100.00;100695.08;1721085;80;21435;-83
2021/09/23 02:45:53;;;;;;;21.87;11.12;;;;;;;9.89;100.00;100694.72;1745393;80;21046;-84
2021/09/23 02:48:20;;;;;;;14.73;10.85;;;;;;;9.88;100.00;100694.35;1733977;79;21051;-84
2021/09/23 02:50:47;;;;;;;15.30;11.78;;;;;;;9.91;100.00;100693.30;1786632;79;21038;-83
2021/09/23 02:53:14;;;;;;;36.45;11.85;;;;;;;9.94;100.00;100700.41;1812950;77;20991;-82
2021/09/23 02:55:43;;;;;;;21.12;12.03;;;;;;;10.00;100.00;100700.45;1812816;79;21145;-84
2021/09/23 02:58:11;;;;;;;20.75;11.95;;;;;;;10.06;100.00;100701.30;1798984;79;21034;-82
2021/09/23 03:00:38;;;;;;;31.82;11.48;;;;;;;10.14;100.00;100704.67;1745685;80;21497;-85
2021/09/23 03:03:07;;;;;;;18.67;11.85;;;;;;;10.19;100.00;100696.05;1775770;80;21002;-83
2021/09/23 03:05:34;;;;;;;19.12;11.40;;;;;;;10.26;100.00;100696.45;1775755;80;21524;-84
2021/09/23 03:08:04;;;;;;;18.90;11.88;;;;;;;10.32;100.00;100692.09;1775673;80;21138;-82
2021/09/23 03:10:31;;;;;;;17.25;11.25;;;;;;;10.33;100.00;100690.34;1775703;80;21006;-81
2021/09/23 03:13:00;;;;;;;31.33;12.15;;;;;;;10.32;100.00;100689.48;1775805;80;21034;-79
2021/09/23 03:15:27;;;;;;;32.38;12.88;;;;;;;10.39;100.00;100686.83;1776012;80;21029;-82
2021/09/23 03:17:56;;;;;;;36.75;13.45;;;;;;;10.46;100.00;100685.91;1781293;78;21033;-83
2021/09/23 03:20:24;;;;;;;16.97;13.25;;;;;;;10.55;100.00;100687.00;1745450;80;21095;-81
2021/09/23 03:22:55;;;;;;;28.92;16.65;;;;;;;10.67;100.00;100687.86;1779097;79;21010;-82
2021/09/23 03:25:24;;;;;;;19.25;15.32;;;;;;;10.82;100.00;100693.71;1775881;80;21050;-81
2021/09/23 03:27:53;;;;;;;20.48;14.20;;;;;;;10.91;100.00;100690.42;1794004;79;21085;-82
2021/09/23 03:30:20;;;;;;;15.98;12.65;;;;;;;10.93;100.00;100688.53;1807517;79;21366;-82
2021/09/23 03:32:47;;;;;;;14.73;12.43;;;;;;;10.88;100.00;100694.55;1807570;79;21770;-83
2021/09/23 03:35:15;;;;;;;14.85;12.20;;;;;;;10.81;100.00;100695.95;1771198;79;21511;-82
2021/09/23 03:37:42;;;;;;;13.25;11.85;;;;;;;10.75;100.00;100696.42;1788524;79;21077;-82
2021/09/23 03:40:10;;;;;;;14.33;12.93;;;;;;;10.69;100.00;100697.25;1770069;80;21015;-82
2021/09/23 03:42:38;;;;;;;18.48;12.78;;;;;;;10.63;100.00;100698.16;1774507;80;21002;-82
2021/09/23 03:45:08;;;;;;;16.10;12.00;;;;;;;10.56;100.00;100699.08;1745039;80;21770;-84
2021/09/23 03:47:35;;;;;;;15.48;12.95;;;;;;;10.52;100.00;100696.36;1758443;79;20986;-85
2021/09/23 03:50:04;;;;;;;15.65;12.33;;;;;;;10.50;100.00;100700.35;1776481;79;20993;-83
2021/09/23 03:52:31;;;;;;;19.10;13.53;;;;;;;10.51;100.00;100701.20;1807797;79;21429;-84
2021/09/23 03:54:58;;;;;;;22.30;12.95;;;;;;;10.52;100.00;100692.45;1802552;79;20999;-86
2021/09/23 03:57:27;;;;;;;18.30;12.35;;;;;;;10.52;100.00;100696.36;1776040;80;21226;-84
2021/09/23 03:59:55;;;;;;;16.48;13.00;;;;;;;10.49;100.00;100697.41;1734844;80;21006;-84
2021/09/23 04:02:23;;;;;;;16.82;13.05;;;;;;;10.44;100.00;100693.48;1734954;80;21022;-84
2021/09/23 04:04:51;;;;;;;27.65;13.38;;;;;;;10.42;100.00;100698.78;1775526;80;21073;-85
2021/09/23 04:07:20;;;;;;;17.30;14.18;;;;;;;10.41;100.00;100694.55;1767335;79;21050;-84
2021/09/23 04:09:47;;;;;;;16.10;14.40;;;;;;;10.39;100.00;100693.34;1780704;79;21085;-84
2021/09/23 04:12:16;;;;;;;20.65;15.85;;;;;;;10.35;100.00;100700.99;1776097;79;21057;-83
2021/09/23 04:14:43;;;;;;;56.42;16.90;;;;;;;10.27;100.00;100698.11;1807537;79;21486;-82
2021/09/23 04:17:12;;;;;;;28.85;15.93;;;;;;;10.18;100.00;100707.88;1807502;79;21026;-84
2021/09/23 04:19:40;;;;;;;21.02;15.95;;;;;;;10.14;100.00;100711.63;1780888;78;21144;-84
2021/09/23 04:22:09;;;;;;;30.80;17.05;;;;;;;10.09;100.00;100709.39;1807580;78;22186;-83
2021/09/23 04:24:38;;;;;;;20.48;16.97;;;;;;;10.00;100.00;100710.04;1776572;79;21090;-86
2021/09/23 04:27:05;;;;;;;22.75;15.50;;;;;;;9.97;100.00;100710.24;1776323;79;21002;-85
2021/09/23 04:29:33;;;;;;;18.20;16.27;;;;;;;9.97;100.00;100715.00;1776345;79;21591;-84
2021/09/23 04:32:00;;;;;;;18.12;15.13;;;;;;;9.92;100.00;100711.42;1807558;78;21055;-84
2021/09/23 04:34:30;;;;;;;17.52;15.32;;;;;;;9.90;100.00;100715.05;1802977;79;21345;-83
2021/09/23 04:36:58;;;;;;;16.75;15.05;;;;;;;9.84;100.00;100711.58;1807375;79;20995;-83
2021/09/23 04:39:25;;;;;;;17.42;15.65;;;;;;;9.78;100.00;100713.69;1775824;79;21077;-81
2021/09/23 04:41:54;;;;;;;16.40;14.70;;;;;;;9.78;100.00;100714.98;1807495;79;21462;-84
2021/09/23 04:44:25;;;;;;;15.90;14.23;;;;;;;9.77;100.00;100718.52;1776724;79;21105;-83
2021/09/23 04:46:52;;;;;;;18.37;14.95;;;;;;;9.72;100.00;100721.08;1807856;79;21114;-85
2021/09/23 04:49:19;;;;;;;19.75;15.18;;;;;;;9.70;100.00;100721.19;1807421;79;21050;-85
2021/09/23 04:51:48;;;;;;;16.77;14.93;;;;;;;9.72;100.00;100725.82;1807564;79;20939;-85
2021/09/23 04:54:17;;;;;;;16.37;14.68;;;;;;;9.73;100.00;100724.89;1806948;79;21387;-84
2021/09/23 04:56:44;;;;;;;16.85;15.15;;;;;;;9.68;100.00;100726.14;1808005;79;21045;-84
2021/09/23 04:59:11;;;;;;;14.50;13.10;;;;;;;9.67;100.00;100722.69;1776188;79;21097;-85
2021/09/23 05:01:38;;;;;;;17.12;14.70;;;;;;;9.68;100.00;100725.66;1807940;79;21088;-85
2021/09/23 05:04:07;;;;;;;16.55;14.87;;;;;;;9.67;100.00;100723.99;1802982;79;21529;-84
2021/09/23 05:06:34;;;;;;;16.15;14.53;;;;;;;9.66;100.00;100721.03;1807689;79;21588;-84
2021/09/23 05:09:03;;;;;;;17.65;15.00;;;;;;;9.69;100.00;100723.91;1807666;78;21520;-85
2021/09/23 05:11:34;;;;;;;17.05;14.25;;;;;;;9.69;100.00;100726.51;1803411;79;20952;-85
2021/09/23 05:14:00;;;;;;;16.25;14.55;;;;;;;9.69;100.00;100722.61;1776182;79;21030;-83
2021/09/23 05:16:30;;;;;;;16.35;14.43;;;;;;;9.70;100.00;100722.49;1807677;78;20987;-85
2021/09/23 05:19:00;;;;;;;16.20;14.50;;;;;;;9.73;100.00;100722.29;1807653;78;20971;-83
2021/09/23 05:21:28;;;;;;;15.63;13.93;;;;;;;9.73;100.00;100724.89;1807623;79;21529;-83
2021/09/23 05:23:56;;;;;;;15.30;13.70;;;;;;;9.70;100.00;100716.44;1807531;78;21142;-84
2021/09/23 05:26:24;;;;;;;16.45;14.78;;;;;;;9.69;100.00;100716.92;1776098;79;21030;-83
2021/09/23 05:28:54;;;;;;;19.55;15.68;;;;;;;9.73;100.00;100720.98;1807669;78;20998;-85
2021/09/23 05:31:23;;;;;;;19.27;15.38;;;;;;;9.78;100.00;100721.48;1776241;78;21817;-83
2021/09/23 05:33:49;;;;;;;19.67;14.53;;;;;;;9.83;100.00;100715.97;1807646;79;20987;-84
2021/09/23 05:36:17;;;;;;;16.17;13.03;;;;;;;9.88;100.00;100722.97;1776315;79;21040;-85
2021/09/23 05:38:44;;;;;;;18.80;15.83;;;;;;;9.90;100.00;100717.64;1807467;78;21010;-82
2021/09/23 05:41:11;;;;;;;22.62;14.55;;;;;;;9.93;100.00;100726.55;1776239;79;21033;-83
2021/09/23 05:43:40;;;;;;;15.75;14.23;;;;;;;9.95;100.00;100722.89;1775986;79;21014;-83
2021/09/23 05:46:07;;;;;;;17.05;15.25;;;;;;;9.96;100.00;100726.34;1807691;79;21022;-82
2021/09/23 05:48:34;;;;;;;17.82;15.90;;;;;;;9.95;100.00;100727.27;1807607;78;21113;-85
2021/09/23 05:51:01;;;;;;;16.45;14.78;;;;;;;9.91;100.00;100733.16;1807896;79;21096;-84
2021/09/23 05:53:27;;;;;;;16.35;14.75;;;;;;;9.93;100.00;100730.44;1807563;79;21876;-83
2021/09/23 05:55:54;;;;;;;17.42;15.35;;;;;;;9.93;100.00;100727.84;1807954;78;21054;-84
2021/09/23 05:58:21;;;;;;;17.27;15.48;;;;;;;9.97;100.00;100733.66;1807641;79;20994;-83
2021/09/23 06:00:48;;;;;;;16.02;14.33;;;;;;;10.01;100.00;100730.73;1807992;78;21122;-84
2021/09/23 06:03:15;;;;;;;16.93;15.13;;;;;;;10.06;100.00;100732.53;1807614;79;21014;-85
2021/09/23 06:05:42;;;;;;;16.02;14.43;;;;;;;10.10;100.00;100730.08;1776750;79;21101;-83
2021/09/23 06:08:09;;;;;;;15.98;14.30;;;;;;;10.12;100.00;100731.75;1807680;79;21981;-83
2021/09/23 06:10:37;;;;;;;16.80;14.83;;;;;;;10.14;100.00;100727.24;1807693;78;21619;-83
2021/09/23 06:13:06;;;;;;;16.12;14.45;;;;;;;10.19;100.00;100725.16;1776555;79;20979;-82
2021/09/23 06:15:34;;;;;;;17.27;15.38;;;;;;;10.20;100.00;100725.53;1776466;79;21077;-83
2021/09/23 06:18:01;;;;;;;19.82;15.75;;;;;;;10.20;100.00;100729.43;1807596;78;21014;-85
2021/09/23 06:20:30;;;;;;;17.57;15.68;;;;;;;10.25;100.00;100726.83;1807455;78;21026;-84
2021/09/23 06:22:57;;;;;;;16.93;15.18;;;;;;;10.35;100.00;100722.27;1807640;78;21050;-83
2021/09/23 06:25:25;;;;;;;16.70;14.63;;;;;;;10.44;100.00;100717.73;1776249;79;21141;-85
2021/09/23 06:27:53;;;;;;;20.00;15.20;;;;;;;10.50;100.00;100720.36;1807611;78;21026;-83
2021/09/23 06:30:22;;;;;;;16.42;14.73;;;;;;;10.52;100.00;100721.91;1807682;78;21022;-84
2021/09/23 06:32:51;;;;;;;15.15;13.65;;;;;;;10.59;100.00;100713.19;1807521;79;21513;-83
2021/09/23 06:35:18;;;;;;;16.25;13.45;;;;;;;10.57;100.00;100716.36;1791934;79;21422;-84
2021/09/23 06:37:48;;;;;;;18.10;13.38;;;;;;;10.55;100.00;100715.19;1807607;78;21061;-84
2021/09/23 06:40:16;;;;;;;17.70;13.70;;;;;;;10.58;100.00;100715.42;1807518;79;21042;-85
2021/09/23 06:42:44;;;;;;;14.38;12.88;;;;;;;10.69;100.00;100715.48;1807486;78;20998;-82
2021/09/23 06:45:12;;;;;;;14.90;13.45;;;;;;;10.77;100.00;100713.59;1807258;79;21057;-83
2021/09/23 06:47:39;;;;;;;15.83;12.95;;;;;;;10.84;100.00;100716.09;1807612;78;21592;-83
2021/09/23 06:50:07;;;;;;;17.52;14.07;;;;;;;10.91;100.00;100715.17;1807579;79;21114;-85
2021/09/23 06:52:36;;;;;;;15.25;13.65;;;;;;;10.95;100.00;100711.37;1807847;78;20955;-85
2021/09/23 06:55:04;;;;;;;14.50;13.05;;;;;;;10.96;100.00;100718.25;1776237;79;21440;-83
2021/09/23 06:57:31;;;;;;;15.50;13.90;;;;;;;10.98;100.00;100711.16;1807813;79;21524;-84
2021/09/23 07:00:17;;;;;;;18.35;13.83;;;;;;;11.02;100.00;100715.66;1794216;79;21018;-85
2021/09/23 07:02:55;;;;;;;15.00;13.53;;;;;;;11.06;100.00;100718.37;1783313;79;21033;-85
2021/09/23 07:05:24;;;;;;;15.53;13.72;;;;;;;11.13;100.00;100713.54;1775948;79;21026;-84
2021/09/23 07:07:51;;;;;;;15.30;13.70;;;;;;;11.16;100.00;100714.13;1776405;79;21426;-82
2021/09/23 07:10:19;;;;;;;14.55;13.05;;;;;;;11.21;100.00;100717.70;1807455;79;20991;-83
2021/09/23 07:13:30;;;;;;;14.40;13.03;;;;;;;11.25;100.00;100716.53;1807625;78;20958;-84
2021/09/23 07:16:01;;;;;;;14.47;12.93;;;;;;;11.27;100.00;100709.41;1807513;79;21154;-84
2021/09/23 07:22:43;;;;;;;15.53;13.93;;;;;;;11.28;100.00;100714.97;1807647;78;21062;-85
2021/09/23 07:25:11;;;;;;;16.82;15.13;;;;;;;11.22;100.00;100712.84;1776390;79;21057;-83
2021/09/23 07:27:40;;;;;;;16.42;14.75;;;;;;;11.17;100.00;100720.20;1808723;78;21002;-83
2021/09/23 07:30:09;;;;;;;16.30;14.80;;;;;;;11.11;100.00;100719.33;1807729;79;20987;-83
2021/09/23 07:32:38;;;;;;;15.35;13.85;;;;;;;11.06;100.00;100724.89;1819169;78;21517;-84
2021/09/23 07:35:06;;;;;;;16.30;14.73;;;;;;;11.02;100.00;100721.69;1816871;77;21544;-86
2021/09/23 07:37:36;;;;;;;16.65;15.05;;;;;;;11.01;100.00;100723.97;1794657;78;21065;-84
2021/09/23 07:40:09;;;;;;;16.73;15.00;;;;;;;10.98;100.00;100717.67;1777119;79;21033;-85
2021/09/23 07:42:38;;;;;;;15.40;13.90;;;;;;;10.94;100.00;100712.31;1807650;79;21803;-85
2021/09/23 07:45:09;;;;;;;19.25;14.95;;;;;;;10.91;100.00;100718.23;1776891;79;21065;-84
2021/09/23 07:47:36;;;;;;;16.40;14.40;;;;;;;10.84;100.00;100715.27;1807637;79;21187;-86
2021/09/23 07:50:04;;;;;;;17.82;15.58;;;;;;;10.78;100.00;100711.34;1776150;79;21112;-85
2021/09/23 07:52:31;;;;;;;15.98;14.33;;;;;;;10.78;100.00;100713.10;1776477;79;21034;-85
2021/09/23 07:55:02;;;;;;;16.73;14.93;;;;;;;10.76;100.00;100709.80;1807466;78;21038;-85
2021/09/23 07:57:31;;;;;;;16.60;14.93;;;;;;;10.73;100.00;100705.17;1777483;79;21053;-85
2021/09/23 07:59:59;;;;;;;16.30;14.73;;;;;;;10.71;100.00;100703.15;1805285;77;21484;-85
2021/09/23 08:02:28;;;;;;;17.00;15.23;;;;;;;10.71;100.00;100704.45;1812838;77;21485;-85
2021/09/23 08:04:55;;;;;;;16.73;15.00;;;;;;;10.71;100.00;100705.75;1813178;78;21493;-85
2021/09/23 08:07:21;;;;;;;19.20;16.15;;;;;;;10.76;100.00;100700.69;1792466;77;21027;-85
2021/09/23 08:09:48;;;;;;;21.02;15.32;;;;;;;10.75;100.00;100701.63;1766771;78;20935;-85
2021/09/23 08:12:15;;;;;;;18.15;15.90;;;;;;;10.77;100.00;100697.14;1774463;79;20983;-85
2021/09/23 08:14:43;;;;;;;18.27;16.42;;;;;;;10.79;100.00;100696.08;1781214;79;20951;-86
2021/09/23 08:17:15;;;;;;;25.88;18.30;;;;;;;10.81;100.00;100698.11;1760299;80;21082;-85
2021/09/23 08:19:45;;;;;;;29.85;17.73;;;;;;;10.82;100.00;100697.13;1783495;78;20994;-85
2021/09/23 08:22:28;;;;;;;19.42;16.48;;;;;;;10.83;100.00;100688.37;1789125;78;20975;-85
2021/09/23 08:24:55;;;;;;;18.02;16.12;;;;;;;10.85;100.00;100688.28;1797554;79;20986;-85
2021/09/23 08:27:23;;;;;;;22.13;15.50;;;;;;;10.85;100.00;100685.68;1796300;78;20959;-86
2021/09/23 08:29:52;;;;;;;63.98;35.13;;;;;;;10.85;100.00;100687.80;1783478;79;21025;-86
2021/09/23 08:32:19;;;;;;;71.15;33.53;;;;;;;10.87;100.00;100683.31;1783202;79;21775;-85
2021/09/23 08:34:51;;;;;;;66.80;42.65;;;;;;;10.85;100.00;100685.19;1783470;79;20979;-85
2021/09/23 08:37:19;;;;;;;76.17;52.90;;;;;;;10.86;100.00;100683.41;1783358;79;21124;-86
2021/09/23 08:39:47;;;;;;;55.25;37.65;;;;;;;10.83;100.00;100679.75;1810538;78;20990;-85
2021/09/23 08:42:16;;;;;;;47.70;32.23;;;;;;;10.78;100.00;100677.48;1810682;78;20999;-86
2021/09/23 08:44:43;;;;;;;51.40;39.58;;;;;;;10.78;100.00;100675.34;1809327;78;21126;-85
2021/09/23 08:47:13;;;;;;;55.55;43.58;;;;;;;10.80;100.00;100671.70;1760564;78;21080;-86
2021/09/23 08:52:42;;;;;;;27.85;24.98;;;;;;;10.87;100.00;100672.05;1687894;84;21062;-88
2021/09/23 08:55:28;;;;;;;30.37;21.05;;;;;;;10.90;100.00;100667.91;1672373;83;21022;-86
2021/09/23 08:58:08;;;;;;;22.17;16.90;;;;;;;10.90;100.00;100665.31;1674574;85;21015;-88
2021/09/23 09:01:33;;;;;;;;;;;;;;;;;;;;;
2021/09/23 09:13:38;;;;;;;;;;;;;;;;;;;;;
2021/09/23 09:17:03;;;;;;;;;;;;;;;;;;;;;
2021/09/23 09:24:18;;;;;;;12.37;11.22;;;;;;;11.03;100.00;100666.52;1295718;106;21773;-86
2021/09/23 09:27:42;;;;;;;;;;;;;;;;;;;;;
2021/09/23 10:39:41;;;;;;;;;;;;;;;;;;;;;
2021/09/23 10:42:00;;;;;;;18.12;16.30;;;;;;;10.74;100.00;100668.22;1606289;86;21075;-86
2021/09/23 10:44:46;;;;;;;18.35;16.42;;;;;;;10.77;100.00;100670.61;1633006;86;21714;-87
2021/09/23 10:47:35;;;;;;;;;;;;;;;;;;;;;
2021/09/23 10:53:08;;;;;;;17.00;15.35;;;;;;;10.83;100.00;100679.75;1384844;102;21214;-87
2021/09/23 10:55:45;;;;;;;;;;;;;;;;;;;;;
2021/09/23 10:58:19;;;;;;;;;;;;;;;;;;;;;
2021/09/23 11:00:41;;;;;;;15.93;14.33;;;;;;;10.83;100.00;100678.44;1477727;94;21336;-88
2021/09/23 11:03:12;;;;;;;15.00;13.45;;;;;;;10.93;100.00;100680.72;1548641;90;21119;-86
2021/09/23 11:05:43;;;;;;;15.43;13.93;;;;;;;10.99;100.00;100678.95;1569893;90;21112;-87
2021/09/23 11:08:12;;;;;;;15.38;13.88;;;;;;;11.00;100.00;100680.61;1664249;85;21038;-86
2021/09/23 11:10:45;;;;;;;15.05;13.65;;;;;;;10.99;100.00;100678.95;1684124;84;20978;-88
2021/09/23 11:13:17;;;;;;;16.02;14.33;;;;;;;10.93;100.00;100680.72;1698594;83;21121;-85
2021/09/23 11:15:48;;;;;;;18.30;14.87;;;;;;;10.90;100.00;100682.24;1688822;80;21046;-86
2021/09/23 11:18:15;;;;;;;14.13;12.63;;;;;;;10.91;100.00;100676.09;1761690;80;21453;-86
2021/09/23 11:20:46;;;;;;;14.78;13.38;;;;;;;10.92;100.00;100672.55;1792233;78;21012;-86
2021/09/23 11:23:19;;;;;;;16.23;14.63;;;;;;;10.86;100.00;100680.34;1775998;79;21556;-88
2021/09/23 11:25:50;;;;;;;14.85;13.30;;;;;;;10.82;100.00;100683.30;1776637;79;21155;-87
2021/09/23 11:28:22;;;;;;;15.55;13.95;;;;;;;10.83;100.00;100678.44;1803461;79;21077;-86
2021/09/23 11:30:53;;;;;;;15.30;13.70;;;;;;;10.85;100.00;100684.37;1776601;79;21097;-87
2021/09/23 11:33:23;;;;;;;;;;;;;;;10.81;100.00;100686.38;1810432;79;20991;-86
2021/09/23 11:35:52;;;;;;;16.07;14.45;;;;;;;10.78;100.00;100685.75;1799771;79;20165;-87
2021/09/23 11:38:22;;;;;;;18.98;15.13;;;;;;;10.78;100.00;100690.96;1744219;79;21171;-84
2021/09/23 11:40:53;;;;;;;;;;;;;;;10.79;100.00;100686.96;1752570;79;20991;-85
2021/09/23 11:43:31;;;;;;;16.57;14.85;;;;;;;10.85;100.00;100683.07;1790045;79;20135;-85
2021/09/23 11:46:00;;;;;;;22.20;15.93;;;;;;;10.89;100.00;100684.48;1759376;79;20987;-86
2021/09/23 11:48:36;;;;;;;17.70;14.80;;;;;;;10.94;100.00;100686.27;1769611;79;20919;-85
2021/09/23 11:51:10;;;;;;;23.83;15.45;;;;;;;11.01;100.00;100684.87;1778341;79;21624;-86
2021/09/23 11:53:39;;;;;;;23.25;17.37;;;;;;;11.09;100.00;100684.77;1778204;79;21489;-86
2021/09/23 11:56:27;;;;;;;22.77;16.20;;;;;;;11.13;100.00;100683.56;1757145;79;21018;-85
2021/09/23 11:58:57;;;;;;;19.67;16.12;;;;;;;11.15;100.00;100681.20;1725603;78;21052;-86
2021/09/23 12:01:27;;;;;;;21.27;15.97;;;;;;;11.20;100.00;100676.94;1803118;78;21048;-84
2021/09/23 12:03:56;;;;;;;19.12;17.05;;;;;;;11.24;100.00;100685.34;1732619;80;21743;-85
2021/09/23 12:06:28;;;;;;;20.37;16.35;;;;;;;11.26;100.00;100690.80;1746677;80;21591;-85
2021/09/23 12:09:13;;;;;;;17.40;15.60;;;;;;;11.27;100.00;100688.55;1748817;78;21246;-85
2021/09/23 12:11:48;;;;;;;17.70;15.80;;;;;;;11.28;100.00;100690.21;1799964;79;20990;-84
2021/09/23 12:14:21;;;;;;;17.23;15.10;;;;;;;11.29;100.00;100687.96;1775582;79;21498;-85
2021/09/23 12:17:02;;;;;;;15.38;13.70;;;;;;;11.33;100.00;100688.55;1751990;79;21053;-84
2021/09/23 12:19:33;;;;;;;16.55;14.95;;;;;;;11.36;100.00;100683.93;1808048;79;21065;-86
2021/09/23 12:22:02;;;;;;;16.90;15.10;;;;;;;11.42;100.00;100689.61;1774346;78;21026;-85
2021/09/23 12:24:35;;;;;;;18.52;13.93;;;;;;;11.38;100.00;100696.02;1764191;80;21636;-84
2021/09/23 12:27:04;;;;;;;16.00;13.95;;;;;;;11.26;100.00;100696.49;1713195;80;20986;-87
2021/09/23 12:29:34;;;;;;;54.27;15.30;;;;;;;11.15;100.00;100692.11;1775336;80;21015;-87
2021/09/23 12:32:09;;;;;;;53.02;17.95;;;;;;;11.07;100.00;100700.50;1784591;78;21061;-85
2021/09/23 12:34:47;;;;;;;15.53;13.75;;;;;;;11.04;100.00;100704.17;1721460;80;21571;-85
2021/09/23 12:37:18;;;;;;;16.05;13.15;;;;;;;11.02;100.00;100704.75;1757398;80;21599;-86
2021/09/23 12:39:53;;;;;;;15.68;13.03;;;;;;;10.95;100.00;100705.34;1687682;79;21041;-84
2021/09/23 12:42:23;;;;;;;12.35;11.12;;;;;;;10.80;100.00;100704.25;1746507;78;21092;-84
2021/09/23 12:45:13;;;;;;;14.07;12.45;;;;;;;10.71;100.00;100706.23;1775181;80;21547;-85
2021/09/23 12:47:52;;;;;;;19.15;12.25;;;;;;;10.57;100.00;100702.89;1786985;79;20994;-83
2021/09/23 12:50:24;;;;;;;12.63;11.25;;;;;;;10.47;100.00;100712.77;1755542;80;20986;-84
2021/09/23 12:52:55;;;;;;;16.00;11.65;;;;;;;10.32;100.00;100713.41;1785294;78;21072;-83
2021/09/23 12:55:32;;;;;;;12.73;11.45;;;;;;;10.17;100.00;100714.87;1748115;80;21052;-83
2021/09/23 12:58:04;;;;;;;12.93;11.30;;;;;;;10.10;100.00;100718.37;1778490;79;21025;-84
2021/09/23 13:00:38;;;;;;;15.43;12.28;;;;;;;9.98;100.00;100712.73;1778422;80;21539;-84
2021/09/23 13:03:13;;;;;;;15.85;13.08;;;;;;;9.90;100.00;100712.44;1796860;78;21066;-83